createdAt,value
2023-02-24T00:00:32.840Z,99535.25
2023-02-24T00:03:06.077Z,99532.69
2023-02-24T00:05:35.024Z,99536.09
2023-02-24T00:08:02.431Z,99536.09
2023-02-24T00:10:30.351Z,99525.84
2023-02-24T00:12:57.460Z,99523.28
2023-02-24T00:15:24.573Z,99520.72
2023-02-24T00:17:51.646Z,99509.59
2023-02-24T00:20:19.245Z,99511.31
2023-02-24T00:22:46.485Z,99506.16
2023-02-24T00:25:14.770Z,99496.75
2023-02-24T00:27:42.718Z,99496.78
2023-02-24T00:30:12.165Z,99505.31
2023-02-24T00:32:39.431Z,99498.50
2023-02-24T00:35:07.323Z,99499.34
2023-02-24T00:37:34.401Z,99490.81
2023-02-24T00:40:01.438Z,99494.19
2023-02-24T00:42:30.118Z,99496.75
2023-02-24T00:44:57.258Z,99489.94
2023-02-24T00:47:24.271Z,99489.94
2023-02-24T00:49:51.377Z,99475.38
2023-02-24T00:52:20.812Z,99480.50
2023-02-24T00:54:49.580Z,99474.53
2023-02-24T00:57:21.706Z,99473.66
2023-02-24T00:59:51.850Z,99464.28
2023-02-24T01:02:20.604Z,99477.97
2023-02-24T01:04:50.147Z,99472.84
2023-02-24T01:07:17.315Z,99471.97
2023-02-24T01:09:44.492Z,99476.25
2023-02-24T01:12:39.150Z,99472.84
2023-02-24T01:15:09.360Z,99465.97
2023-02-24T01:17:38.400Z,99446.31
2023-02-24T01:20:17.268Z,99459.16
2023-02-24T01:22:47.097Z,99457.47
2023-02-24T01:25:16.723Z,99448.06
2023-02-24T01:27:43.818Z,99446.31
2023-02-24T01:30:16.414Z,99448.03
2023-02-24T01:32:44.380Z,99442.06
2023-02-24T01:35:12.324Z,99436.94
2023-02-24T01:37:40.055Z,99443.75
2023-02-24T01:40:21.500Z,99435.22
2023-02-24T01:42:50.035Z,99428.38
2023-02-24T01:45:21.585Z,99422.41
2023-02-24T01:47:49.545Z,99416.41
2023-02-24T01:50:21.965Z,99418.13
2023-02-24T01:52:51.661Z,99415.56
2023-02-24T01:55:29.422Z,99418.13
2023-02-24T01:57:58.603Z,99416.38
2023-02-24T02:00:52.125Z,99411.25
2023-02-24T02:03:35.650Z,99407.88
2023-02-24T02:06:09.382Z,99377.97
2023-02-24T02:08:39.551Z,99414.69
2023-02-24T02:11:09.403Z,99407.00
2023-02-24T02:13:40.207Z,99406.13
2023-02-24T02:16:37.568Z,99406.13
2023-02-24T02:19:23.041Z,99397.59
2023-02-24T02:22:08.704Z,99401.00
2023-02-24T02:25:20.849Z,99396.75
2023-02-24T02:28:03.156Z,99395.88
2023-02-24T02:30:45.383Z,99390.75
2023-02-24T02:33:36.962Z,99387.34
2023-02-24T02:36:13.929Z,99383.91
2023-02-24T02:38:59.444Z,99377.94
2023-02-24T02:41:35.345Z,99380.50
2023-02-24T02:44:20.430Z,99377.94
2023-02-24T02:47:13.859Z,99368.53
2023-02-24T02:49:53.680Z,99368.56
2023-02-24T02:52:43.267Z,99374.50
2023-02-24T02:55:16.299Z,99366.81
2023-02-24T02:57:48.345Z,99366.81
2023-02-24T03:00:23.465Z,99370.22
2023-02-24T03:02:58.506Z,99365.09
2023-02-24T03:05:31.894Z,99359.97
2023-02-24T03:08:04.959Z,99357.41
2023-02-24T03:10:34.521Z,99358.25
2023-02-24T03:13:06.326Z,99356.56
2023-02-24T03:15:34.727Z,99363.41
2023-02-24T03:18:11.544Z,99354.84
2023-02-24T03:20:52.053Z,99355.69
2023-02-24T03:23:26.186Z,99350.59
2023-02-24T03:26:08.058Z,99354.00
2023-02-24T03:28:43.201Z,99351.44
2023-02-24T03:31:23.897Z,99345.44
2023-02-24T03:34:03.845Z,99357.44
2023-02-24T03:36:33.445Z,99348.03
2023-02-24T03:39:02.281Z,99352.31
2023-02-24T03:41:41.267Z,99348.03
2023-02-24T03:44:11.318Z,99341.19
2023-02-24T03:46:39.367Z,99330.94
2023-02-24T03:49:16.865Z,99334.38
2023-02-24T03:52:03.507Z,99337.81
2023-02-24T03:55:15.387Z,99336.97
2023-02-24T03:58:26.024Z,99334.38
2023-02-24T04:01:12.036Z,99328.44
2023-02-24T04:03:57.816Z,99327.56
2023-02-24T04:06:53.950Z,99326.69
2023-02-24T04:09:48.444Z,99322.44
2023-02-24T04:12:40.220Z,99324.13
2023-02-24T04:15:22.894Z,99319.88
2023-02-24T04:17:57.768Z,99313.06
2023-02-24T04:20:32.654Z,99316.44
2023-02-24T04:23:27.037Z,99307.06
2023-02-24T04:25:56.523Z,99307.06
2023-02-24T04:28:27.598Z,99308.75
2023-02-24T04:31:06.120Z,99295.09
2023-02-24T04:33:35.894Z,99296.81
2023-02-24T04:36:03.300Z,99278.03
2023-02-24T04:38:34.496Z,99286.56
2023-02-24T04:41:01.733Z,99291.69
2023-02-24T04:43:29.744Z,99283.16
2023-02-24T04:45:56.993Z,99266.91
2023-02-24T04:48:24.115Z,99274.59
2023-02-24T04:50:55.464Z,99278.03
2023-02-24T04:53:31.214Z,99278.03
2023-02-24T04:56:08.504Z,99272.91
2023-02-24T04:58:38.579Z,99268.63
2023-02-24T05:01:11.247Z,99266.91
2023-02-24T05:03:42.635Z,99260.06
2023-02-24T05:06:16.328Z,99259.22
2023-02-24T05:08:43.856Z,99260.97
2023-02-24T05:11:19.512Z,99250.69
2023-02-24T05:13:47.264Z,99249.00
2023-02-24T05:16:17.953Z,99243.88
2023-02-24T05:18:45.276Z,99237.88
2023-02-24T05:21:34.189Z,99243.88
2023-02-24T05:24:11.503Z,99235.31
2023-02-24T05:26:42.042Z,99241.31
2023-02-24T05:29:11.239Z,99227.66
2023-02-24T05:31:38.784Z,99236.16
2023-02-24T05:34:08.361Z,99241.28
2023-02-24T05:36:40.839Z,99234.50
2023-02-24T05:39:12.229Z,99231.06
2023-02-24T05:41:42.331Z,99226.81
2023-02-24T05:44:13.472Z,99226.81
2023-02-24T05:46:44.760Z,99219.94
2023-02-24T05:49:24.254Z,99225.06
2023-02-24T05:51:55.970Z,99221.69
2023-02-24T05:54:35.965Z,99218.25
2023-02-24T05:57:09.580Z,99223.38
2023-02-24T05:59:36.688Z,99221.69
2023-02-24T06:02:09.535Z,99219.97
2023-02-24T06:04:41.281Z,99223.38
2023-02-24T06:07:19.583Z,99217.38
2023-02-24T06:09:50.532Z,99213.97
2023-02-24T06:12:18.797Z,99218.22
2023-02-24T06:14:46.418Z,99211.44
2023-02-24T06:17:17.261Z,99206.28
2023-02-24T06:19:45.185Z,99206.28
2023-02-24T06:22:16.863Z,99201.16
2023-02-24T06:24:44.590Z,99199.44
2023-02-24T06:27:18.040Z,99204.56
2023-02-24T06:29:48.097Z,99196.91
2023-02-24T06:32:15.309Z,99196.91
2023-02-24T06:34:42.784Z,99199.44
2023-02-24T06:37:14.542Z,99192.63
2023-02-24T06:39:42.221Z,99196.03
2023-02-24T06:42:10.727Z,99192.59
2023-02-24T06:44:40.238Z,99196.88
2023-02-24T06:47:10.837Z,99190.03
2023-02-24T06:49:37.972Z,99184.06
2023-02-24T06:52:06.098Z,99185.78
2023-02-24T06:54:36.190Z,99173.81
2023-02-24T06:57:03.975Z,99183.22
2023-02-24T06:59:32.430Z,99187.47
2023-02-24T07:02:02.209Z,99180.66
2023-02-24T07:04:29.948Z,99176.38
2023-02-24T07:07:03.440Z,99180.66
2023-02-24T07:09:31.465Z,99184.06
2023-02-24T07:11:59.683Z,99180.66
2023-02-24T07:14:31.119Z,99187.53
2023-02-24T07:16:59.868Z,99192.66
2023-02-24T07:19:29.708Z,99186.72
2023-02-24T07:22:03.914Z,99191.00
2023-02-24T07:24:36.226Z,99191.00
2023-02-24T07:27:07.773Z,99188.50
2023-02-24T07:29:36.131Z,99185.91
2023-02-24T07:32:06.067Z,99187.63
2023-02-24T07:34:34.263Z,99183.41
2023-02-24T07:37:08.491Z,99182.56
2023-02-24T07:39:37.766Z,99180.84
2023-02-24T07:42:06.915Z,99187.69
2023-02-24T07:44:44.919Z,99180.91
2023-02-24T07:47:11.993Z,99182.59
2023-02-24T07:49:41.257Z,99170.66
2023-02-24T07:52:09.144Z,99177.53
2023-02-24T07:54:37.439Z,99181.78
2023-02-24T07:57:05.922Z,99186.91
2023-02-24T07:59:36.034Z,99192.91
2023-02-24T08:02:07.813Z,99184.38
2023-02-24T08:04:36.555Z,99181.81
2023-02-24T08:07:04.515Z,99184.34
2023-02-24T08:09:46.054Z,99191.22
2023-02-24T08:12:18.460Z,99182.69
2023-02-24T08:14:51.254Z,99176.72
2023-02-24T08:17:21.704Z,99178.41
2023-02-24T08:19:50.883Z,99180.97
2023-02-24T08:22:21.358Z,99182.66
2023-02-24T08:25:06.062Z,99169.03
2023-02-24T08:27:42.374Z,99163.91
2023-02-24T08:30:21.622Z,99167.31
2023-02-24T08:32:57.034Z,99162.22
2023-02-24T08:35:32.804Z,99157.06
2023-02-24T08:38:10.501Z,99158.81
2023-02-24T08:40:50.316Z,99162.19
2023-02-24T08:43:31.106Z,99162.19
2023-02-24T08:46:25.815Z,99159.63
2023-02-24T08:49:02.174Z,99151.13
2023-02-24T08:51:44.126Z,99147.72
2023-02-24T08:54:32.187Z,99132.38
2023-02-24T08:57:09.736Z,99136.66
2023-02-24T08:59:47.769Z,99128.13
2023-02-24T09:02:27.404Z,99128.97
2023-02-24T09:05:04.013Z,99128.09
2023-02-24T09:07:37.524Z,99117.00
2023-02-24T09:10:18.058Z,99125.53
2023-02-24T09:12:45.744Z,99120.44
2023-02-24T09:15:15.665Z,99117.88
2023-02-24T09:17:45.267Z,99113.63
2023-02-24T09:20:26.105Z,99114.47
2023-02-24T09:23:00.828Z,99123.00
2023-02-24T09:25:47.230Z,99116.16
2023-02-24T09:28:17.644Z,99113.63
2023-02-24T09:30:51.655Z,99112.75
2023-02-24T09:33:39.923Z,99109.34
2023-02-24T09:36:13.233Z,99102.53
2023-02-24T09:38:57.931Z,99104.22
2023-02-24T09:41:54.922Z,99097.41
2023-02-24T09:44:33.993Z,99102.53
2023-02-24T09:47:00.958Z,99101.69
2023-02-24T09:49:40.269Z,99101.66
2023-02-24T09:52:19.172Z,99095.72
2023-02-24T09:55:10.879Z,99088.91
2023-02-24T09:58:12.400Z,99081.22
2023-02-24T10:00:44.755Z,99076.97
2023-02-24T10:03:48.323Z,99070.13
2023-02-24T10:06:23.888Z,99065.03
2023-02-24T10:08:55.327Z,99075.25
2023-02-24T10:11:33.432Z,99066.75
2023-02-24T10:14:05.663Z,99059.91
2023-02-24T10:16:44.522Z,99070.16
2023-02-24T10:19:26.537Z,99067.59
2023-02-24T10:22:03.466Z,99065.06
2023-02-24T10:24:47.617Z,99054.81
2023-02-24T10:27:37.484Z,99048.00
2023-02-24T10:30:28.186Z,99045.44
2023-02-24T10:33:05.611Z,99034.34
2023-02-24T10:35:34.444Z,99037.78
2023-02-24T10:38:06.873Z,99030.97
2023-02-24T10:40:47.107Z,99017.34
2023-02-24T10:43:25.586Z,99024.16
2023-02-24T10:46:06.500Z,99016.47
2023-02-24T10:48:42.252Z,99017.34
2023-02-24T10:51:32.210Z,99003.72
2023-02-24T10:54:31.684Z,99013.94
2023-02-24T10:57:23.168Z,99007.09
2023-02-24T11:00:17.973Z,99010.53
2023-02-24T11:03:10.516Z,98996.88
2023-02-24T11:06:07.318Z,99001.16
2023-02-24T11:08:37.094Z,98994.31
2023-02-24T11:11:20.630Z,99000.25
2023-02-24T11:14:11.014Z,98988.34
2023-02-24T11:17:10.609Z,98981.56
2023-02-24T11:20:11.187Z,98986.66
2023-02-24T11:22:42.206Z,98970.50
2023-02-24T11:25:20.009Z,98976.44
2023-02-24T11:27:47.807Z,98967.91
2023-02-24T11:30:31.699Z,98961.13
2023-02-24T11:33:23.724Z,98961.13
2023-02-24T11:36:05.418Z,98960.28
2023-02-24T11:39:17.223Z,98964.53
2023-02-24T11:41:53.363Z,98956.00
2023-02-24T11:44:52.532Z,98947.50
2023-02-24T11:47:28.191Z,98954.31
2023-02-24T11:50:19.381Z,98944.09
2023-02-24T11:52:49.839Z,98953.47
2023-02-24T11:55:32.728Z,98948.38
2023-02-24T11:58:03.184Z,98932.19
2023-02-24T12:00:37.023Z,98938.16
2023-02-24T12:03:14.152Z,98933.88
2023-02-24T12:05:47.284Z,98930.47
2023-02-24T12:08:31.318Z,98915.13
2023-02-24T12:11:11.733Z,98906.59
2023-02-24T12:14:16.170Z,98911.69
2023-02-24T12:16:48.233Z,98901.44
2023-02-24T12:19:27.967Z,98897.19
2023-02-24T12:22:06.405Z,98904.03
2023-02-24T12:24:36.359Z,98892.94
2023-02-24T12:27:15.760Z,98892.94
2023-02-24T12:30:23.202Z,98892.97
2023-02-24T12:33:13.557Z,98896.38
2023-02-24T12:35:44.760Z,98892.09
2023-02-24T12:38:29.927Z,98881.88
2023-02-24T12:41:19.116Z,98873.34
2023-02-24T12:43:55.636Z,98863.16
2023-02-24T12:46:30.206Z,98875.03
2023-02-24T12:49:34.913Z,98877.56
2023-02-24T12:52:31.058Z,98874.97
2023-02-24T12:55:18.662Z,98853.63
2023-02-24T12:58:02.130Z,98855.34
2023-02-24T13:00:57.939Z,98855.34
2023-02-24T13:03:56.753Z,98845.13
2023-02-24T13:06:56.983Z,98851.09
2023-02-24T13:09:38.215Z,98839.13
2023-02-24T13:12:39.142Z,98828.03
2023-02-24T13:15:16.434Z,98829.78
2023-02-24T13:17:48.706Z,98816.16
2023-02-24T13:20:38.192Z,98818.69
2023-02-24T13:23:20.231Z,98816.16
2023-02-24T13:25:52.920Z,98805.97
2023-02-24T13:28:36.424Z,98811.00
2023-02-24T13:31:09.417Z,98805.06
2023-02-24T13:33:43.135Z,98802.50
2023-02-24T13:36:22.253Z,98788.84
2023-02-24T13:39:05.918Z,98803.31
2023-02-24T13:41:33.039Z,98794.78
2023-02-24T13:44:24.368Z,98793.94
2023-02-24T13:47:21.679Z,98788.81
2023-02-24T13:50:01.018Z,98778.59
2023-02-24T13:52:50.443Z,98778.56
2023-02-24T13:55:23.154Z,98768.31
2023-02-24T13:58:18.128Z,98770.88
2023-02-24T14:01:09.664Z,98762.34
2023-02-24T14:03:40.434Z,98758.09
2023-02-24T14:06:18.208Z,98761.50
2023-02-24T14:08:54.589Z,98759.81
2023-02-24T14:11:26.262Z,98755.53
2023-02-24T14:13:56.176Z,98754.66
2023-02-24T14:16:32.839Z,98751.22
2023-02-24T14:19:02.743Z,98743.50
2023-02-24T14:21:33.588Z,98730.75
2023-02-24T14:24:13.696Z,98732.44
2023-02-24T14:26:51.032Z,98730.69
2023-02-24T14:29:21.491Z,98725.59
2023-02-24T14:31:51.492Z,98723.88
2023-02-24T14:34:22.174Z,98719.59
2023-02-24T14:36:55.323Z,98715.31
2023-02-24T14:39:29.576Z,98713.59
2023-02-24T14:42:09.861Z,98708.50
2023-02-24T14:44:41.877Z,98706.84
2023-02-24T14:47:11.594Z,98701.72
2023-02-24T14:49:38.812Z,98694.88
2023-02-24T14:52:08.729Z,98694.91
2023-02-24T14:54:48.239Z,98694.94
2023-02-24T14:57:25.182Z,98689.84
2023-02-24T14:59:57.844Z,98679.66
2023-02-24T15:02:32.333Z,98681.34
2023-02-24T15:05:00.397Z,98676.19
2023-02-24T15:07:34.191Z,98666.84
2023-02-24T15:10:02.934Z,98662.56
2023-02-24T15:12:34.100Z,98660.00
2023-02-24T15:15:02.881Z,98655.75
2023-02-24T15:17:30.630Z,98649.00
2023-02-24T15:19:57.994Z,98649.00
2023-02-24T15:22:28.481Z,98649.00
2023-02-24T15:25:12.818Z,98643.88
2023-02-24T15:27:59.818Z,98643.03
2023-02-24T15:30:30.076Z,98632.78
2023-02-24T15:33:05.916Z,98631.16
2023-02-24T15:35:35.138Z,98628.59
2023-02-24T15:38:02.715Z,98619.22
2023-02-24T15:40:31.526Z,98616.63
2023-02-24T15:43:10.906Z,98595.38
2023-02-24T15:45:39.868Z,98604.72
2023-02-24T15:48:22.305Z,98601.28
2023-02-24T15:50:53.099Z,98601.28
2023-02-24T15:53:20.516Z,98594.47
2023-02-24T15:55:47.794Z,98594.50
2023-02-24T15:58:18.814Z,98596.19
2023-02-24T16:00:46.478Z,98590.25
2023-02-24T16:03:13.684Z,98581.72
2023-02-24T16:05:40.938Z,98586.84
2023-02-24T16:08:13.944Z,98584.31
2023-02-24T16:10:41.624Z,98580.06
2023-02-24T16:13:16.989Z,98584.34
2023-02-24T16:15:45.612Z,98584.34
2023-02-24T16:18:22.547Z,98584.34
2023-02-24T16:20:57.265Z,98590.28
2023-02-24T16:23:26.553Z,98577.53
2023-02-24T16:25:58.085Z,98575.88
2023-02-24T16:28:26.840Z,98576.69
2023-02-24T16:30:54.371Z,98579.22
2023-02-24T16:33:24.794Z,98577.53
2023-02-24T16:35:55.197Z,98567.31
2023-02-24T16:38:26.739Z,98575.81
2023-02-24T16:40:55.200Z,98567.28
2023-02-24T16:43:22.435Z,98558.78
2023-02-24T16:45:49.974Z,98558.81
2023-02-24T16:48:24.370Z,98550.28
2023-02-24T16:50:52.056Z,98552.84
2023-02-24T16:53:22.862Z,98546.91
2023-02-24T16:55:50.901Z,98552.81
2023-02-24T16:58:19.471Z,98548.53
2023-02-24T17:00:50.105Z,98543.47
2023-02-24T17:03:21.356Z,98538.34
2023-02-24T17:05:48.872Z,98524.72
2023-02-24T17:08:16.360Z,98526.44
2023-02-24T17:10:44.812Z,98514.53
2023-02-24T17:13:14.053Z,98523.88
2023-02-24T17:15:41.765Z,98512.81
2023-02-24T17:18:09.648Z,98512.81
2023-02-24T17:20:39.003Z,98510.31
2023-02-24T17:23:07.250Z,98504.34
2023-02-24T17:25:34.341Z,98511.19
2023-02-24T17:28:01.499Z,98500.97
2023-02-24T17:30:32.127Z,98507.84
2023-02-24T17:33:00.222Z,98492.50
2023-02-24T17:35:28.921Z,98487.44
2023-02-24T17:37:56.449Z,98485.75
2023-02-24T17:40:23.853Z,98487.47
2023-02-24T17:42:51.568Z,98474.72
2023-02-24T17:45:18.897Z,98483.19
2023-02-24T17:47:46.061Z,98467.00
2023-02-24T17:50:13.677Z,98465.31
2023-02-24T17:52:41.299Z,98456.75
2023-02-24T17:55:09.339Z,98464.44
2023-02-24T17:57:37.180Z,98458.47
2023-02-24T18:00:06.247Z,98453.38
2023-02-24T18:02:39.809Z,98446.50
2023-02-24T18:05:07.929Z,98449.09
2023-02-24T18:07:35.294Z,98435.53
2023-02-24T18:10:03.109Z,98444.84
2023-02-24T18:12:30.348Z,98434.66
2023-02-24T18:15:07.807Z,98427.84
2023-02-24T18:17:36.664Z,98432.06
2023-02-24T18:20:04.757Z,98429.53
2023-02-24T18:22:31.935Z,98422.69
2023-02-24T18:24:59.630Z,98415.91
2023-02-24T18:27:27.238Z,98417.59
2023-02-24T18:29:54.951Z,98413.28
2023-02-24T18:32:22.248Z,98406.47
2023-02-24T18:34:49.690Z,98412.44
2023-02-24T18:37:16.873Z,98408.16
2023-02-24T18:39:44.064Z,98409.84
2023-02-24T18:42:11.941Z,98397.09
2023-02-24T18:44:39.212Z,98403.03
2023-02-24T18:47:09.902Z,98405.56
2023-02-24T18:49:37.615Z,98399.63
2023-02-24T18:52:05.699Z,98398.75
2023-02-24T18:54:34.175Z,98397.91
2023-02-24T18:57:02.164Z,98380.97
2023-02-24T18:59:30.176Z,98390.22
2023-02-24T19:01:57.437Z,98386.81
2023-02-24T19:04:25.406Z,98395.34
2023-02-24T19:06:52.613Z,98380.06
2023-02-24T19:09:22.955Z,98381.66
2023-02-24T19:11:50.569Z,98382.50
2023-02-24T19:14:18.012Z,98388.47
2023-02-24T19:16:45.652Z,98379.97
2023-02-24T19:19:16.672Z,98376.56
2023-02-24T19:21:45.741Z,98378.25
2023-02-24T19:24:14.128Z,98368.94
2023-02-24T19:26:42.950Z,98369.78
2023-02-24T19:29:10.803Z,98372.34
2023-02-24T19:31:39.019Z,98368.06
2023-02-24T19:34:08.623Z,98346.91
2023-02-24T19:36:37.360Z,98356.22
2023-02-24T19:39:05.830Z,98359.66
2023-02-24T19:41:33.128Z,98354.53
2023-02-24T19:44:00.311Z,98350.31
2023-02-24T19:46:27.822Z,98349.47
2023-02-24T19:48:56.677Z,98344.41
2023-02-24T19:51:24.425Z,98346.13
2023-02-24T19:53:57.029Z,98346.97
2023-02-24T19:56:29.703Z,98343.56
2023-02-24T19:58:58.940Z,98339.31
2023-02-24T20:01:28.298Z,98340.19
2023-02-24T20:04:00.372Z,98334.25
2023-02-24T20:06:31.586Z,98335.97
2023-02-24T20:08:59.571Z,98324.09
2023-02-24T20:11:28.993Z,98329.19
2023-02-24T20:13:56.584Z,98330.91
2023-02-24T20:16:26.259Z,98330.84
2023-02-24T20:18:55.586Z,98315.59
2023-02-24T20:21:22.916Z,98310.50
2023-02-24T20:23:51.229Z,98323.19
2023-02-24T20:26:18.882Z,98324.88
2023-02-24T20:28:47.563Z,98317.22
2023-02-24T20:31:18.810Z,98318.97
2023-02-24T20:33:47.098Z,98308.75
2023-02-24T20:36:19.778Z,98303.63
2023-02-24T20:38:47.685Z,98303.63
2023-02-24T20:41:15.421Z,98306.19
2023-02-24T20:43:42.695Z,98307.06
2023-02-24T20:46:25.885Z,98305.44
2023-02-24T20:48:57.596Z,98302.00
2023-02-24T20:51:26.460Z,98297.75
2023-02-24T20:53:57.960Z,98292.66
2023-02-24T20:56:29.987Z,98268.88
2023-02-24T20:59:11.036Z,98281.59
2023-02-24T21:01:39.496Z,98283.28
2023-02-24T21:04:08.953Z,98279.88
2023-02-24T21:06:37.293Z,98288.38
2023-02-24T21:09:05.113Z,98285.00
2023-02-24T21:11:32.360Z,98272.22
2023-02-24T21:13:59.698Z,98259.47
2023-02-24T21:16:27.633Z,98261.97
2023-02-24T21:18:56.483Z,98264.50
2023-02-24T21:21:23.635Z,98261.13
2023-02-24T21:23:51.532Z,98247.56
2023-02-24T21:26:19.582Z,98261.16
2023-02-24T21:28:46.898Z,98251.00
2023-02-24T21:31:17.270Z,98254.44
2023-02-24T21:33:44.937Z,98245.09
2023-02-24T21:36:14.384Z,98239.97
2023-02-24T21:38:42.013Z,98243.41
2023-02-24T21:41:15.001Z,98228.88
2023-02-24T21:43:45.718Z,98231.47
2023-02-24T21:46:15.805Z,98237.44
2023-02-24T21:48:43.307Z,98231.44
2023-02-24T21:51:13.839Z,98228.88
2023-02-24T21:53:44.004Z,98222.13
2023-02-24T21:56:11.256Z,98219.63
2023-02-24T21:58:39.886Z,98212.81
2023-02-24T22:01:13.559Z,98208.53
2023-02-24T22:03:40.939Z,98213.66
2023-02-24T22:06:11.106Z,98206.84
2023-02-24T22:08:43.536Z,98208.53
2023-02-24T22:11:15.629Z,98199.16
2023-02-24T22:13:44.250Z,98198.28
2023-02-24T22:16:15.741Z,98190.63
2023-02-24T22:18:42.992Z,98185.50
2023-02-24T22:21:18.958Z,98191.44
2023-02-24T22:23:47.818Z,98182.97
2023-02-24T22:26:16.539Z,98185.50
2023-02-24T22:28:45.147Z,98186.38
2023-02-24T22:31:14.275Z,98167.69
2023-02-24T22:33:43.091Z,98183.84
2023-02-24T22:36:19.255Z,98177.88
2023-02-24T22:38:47.167Z,98171.91
2023-02-24T22:41:22.816Z,98174.47
2023-02-24T22:43:50.781Z,98170.22
2023-02-24T22:46:24.635Z,98181.22
2023-02-24T22:48:52.190Z,98166.78
2023-02-24T22:51:20.091Z,98173.53
2023-02-24T22:53:49.254Z,98170.97
2023-02-24T22:56:19.000Z,98154.03
2023-02-24T22:58:46.557Z,98161.63
2023-02-24T23:01:19.450Z,98164.19
2023-02-24T23:03:46.860Z,98155.66
2023-02-24T23:06:18.652Z,98152.22
2023-02-24T23:08:49.359Z,98147.25
2023-02-24T23:11:20.018Z,98148.03
2023-02-24T23:13:48.407Z,98146.38
2023-02-24T23:16:22.527Z,98136.19
2023-02-24T23:18:54.088Z,98136.19
2023-02-24T23:21:33.996Z,98129.38
2023-02-24T23:24:01.888Z,98129.38
2023-02-24T23:26:46.797Z,98124.31
2023-02-24T23:29:17.466Z,98128.53
2023-02-24T23:31:45.113Z,98125.16
2023-02-24T23:34:12.508Z,98120.03
2023-02-24T23:36:43.869Z,98115.03
2023-02-24T23:39:13.635Z,98120.03
2023-02-24T23:41:44.542Z,98114.97
2023-02-24T23:44:12.625Z,98112.38
2023-02-24T23:46:41.857Z,98106.47
2023-02-24T23:49:09.190Z,98102.22
2023-02-24T23:51:47.721Z,98101.38
2023-02-24T23:54:19.459Z,98100.53
2023-02-24T23:56:46.826Z,98101.44
2023-02-24T23:59:14.166Z,98098.03
